Time;durP1;ratioP1;P1;durP2;ratioP2;P2;SDS_P1;SDS_P2;PMS_P1;PMS_P2;Temp;Humidity;BMP_temperature;BMP_pressure;BME280_temperature;BME280_humidity;BME280_pressure;Samples;Min_cycle;Max_cycle;Signal;HPM_P1;HPM_P2
2021/05/23 00:02:18;;;;;;;14.20;5.40;;;;;;;14.25;55.52;99929.19;5066543;28;20509;-60
2021/05/23 00:04:45;;;;;;;14.63;5.85;;;;;;;14.24;55.23;99930.97;5094324;28;20047;-59
2021/05/23 00:07:12;;;;;;;18.00;5.63;;;;;;;14.16;55.56;99930.31;5084800;28;20547;-62
2021/05/23 00:09:40;;;;;;;12.23;5.15;;;;;;;14.01;55.38;99901.50;5078175;28;20040;-66
2021/05/23 00:12:13;;;;;;;11.57;5.15;;;;;;;14.18;55.51;99925.81;5064058;28;20088;-76
2021/05/23 00:14:40;;;;;;;11.85;5.18;;;;;;;14.16;55.65;99924.13;5063251;28;20056;-59
2021/05/23 00:17:06;;;;;;;15.13;5.55;;;;;;;14.07;55.72;99901.28;5080813;28;20580;-60
2021/05/23 00:19:32;;;;;;;11.35;5.40;;;;;;;14.17;55.62;99921.44;5097315;28;20050;-69
2021/05/23 00:21:58;;;;;;;18.55;5.70;;;;;;;14.12;55.91;99923.34;5067713;28;20455;-64
2021/05/23 00:24:24;;;;;;;13.55;6.07;;;;;;;14.10;55.72;99932.31;5081221;28;20109;-64
2021/05/23 00:26:51;;;;;;;14.63;5.53;;;;;;;14.01;56.09;99913.94;5082316;28;20537;-63
2021/05/23 00:29:18;;;;;;;11.07;5.82;;;;;;;13.97;56.25;99918.50;5065506;28;20054;-65
2021/05/23 00:31:45;;;;;;;11.18;5.45;;;;;;;14.02;56.09;99915.69;5082107;28;20044;-63
2021/05/23 00:34:11;;;;;;;9.98;5.43;;;;;;;13.98;56.15;99914.03;5063065;28;20064;-64
2021/05/23 00:36:38;;;;;;;10.98;5.35;;;;;;;13.87;56.67;99901.03;5066745;28;20044;-65
2021/05/23 00:39:05;;;;;;;10.75;5.43;;;;;;;13.87;56.63;99909.03;5076073;28;20613;-62
2021/05/23 00:41:32;;;;;;;11.18;4.97;;;;;;;13.83;56.76;99910.94;5078261;28;20032;-67
2021/05/23 00:43:58;;;;;;;16.58;5.68;;;;;;;13.80;56.71;99902.16;5085743;28;20056;-62
2021/05/23 00:46:25;;;;;;;9.88;5.25;;;;;;;13.84;56.84;99903.81;5081932;28;20044;-61
2021/05/23 00:48:51;;;;;;;11.75;5.88;;;;;;;13.78;56.66;99894.19;5079547;28;20035;-60
2021/05/23 00:51:17;;;;;;;15.35;5.65;;;;;;;13.65;56.85;99892.84;5046931;28;20044;-61
2021/05/23 00:53:43;;;;;;;15.43;5.50;;;;;;;13.70;57.28;99903.38;5064004;28;20048;-56
2021/05/23 00:56:12;;;;;;;13.35;5.72;;;;;;;13.73;56.99;99900.63;5054569;28;20075;-55
2021/05/23 00:58:38;;;;;;;13.43;5.78;;;;;;;13.66;57.26;99899.06;5066645;28;20070;-56
2021/05/23 01:01:12;;;;;;;12.55;5.95;;;;;;;13.67;57.34;99896.34;5079288;28;20570;-59
2021/05/23 01:03:54;;;;;;;16.13;6.53;;;;;;;13.67;57.45;99899.00;5062631;28;20140;-54
2021/05/23 01:06:20;;;;;;;13.07;6.18;;;;;;;13.55;57.93;99890.50;5082645;28;20044;-60
2021/05/23 01:08:48;;;;;;;14.85;6.30;;;;;;;13.60;57.79;99899.22;5081341;28;20040;-63
2021/05/23 01:11:17;;;;;;;14.90;6.75;;;;;;;13.56;57.82;99892.25;5081448;28;20244;-60
2021/05/23 01:14:01;;;;;;;14.85;6.78;;;;;;;13.64;57.33;99906.19;5064187;28;20052;-53
2021/05/23 01:16:41;;;;;;;16.52;6.65;;;;;;;13.51;58.13;99896.84;5081987;28;20040;-62
2021/05/23 01:19:23;;;;;;;16.55;6.43;;;;;;;13.39;58.20;99902.53;5083444;28;20525;-61
2021/05/23 01:22:00;;;;;;;17.50;6.63;;;;;;;13.48;58.06;99904.91;5065320;28;20043;-58
2021/05/23 01:24:41;;;;;;;13.13;6.22;;;;;;;13.45;58.15;99900.56;5069369;28;20051;-60
2021/05/23 01:27:10;;;;;;;12.57;6.20;;;;;;;13.52;58.11;99907.44;5077663;28;20040;-60
2021/05/23 01:29:38;;;;;;;12.07;6.03;;;;;;;13.49;57.99;99904.88;5067215;28;20109;-59
2021/05/23 01:32:04;;;;;;;15.02;6.30;;;;;;;13.46;58.13;99914.75;5067046;28;20090;-60
2021/05/23 01:34:31;;;;;;;9.90;6.03;;;;;;;13.51;58.39;99908.38;5060920;28;20056;-61
2021/05/23 01:36:59;;;;;;;15.52;6.35;;;;;;;13.57;57.65;99910.84;5066793;28;20138;-57
2021/05/23 01:39:26;;;;;;;10.30;5.97;;;;;;;13.60;57.58;99918.75;5033648;28;20437;-60
2021/05/23 01:41:52;;;;;;;13.75;6.07;;;;;;;13.60;57.83;99923.19;5078709;28;20040;-59
2021/05/23 01:44:19;;;;;;;14.07;6.20;;;;;;;13.56;58.19;99924.22;5077177;28;20056;-60
2021/05/23 01:46:46;;;;;;;8.80;5.88;;;;;;;13.45;58.51;99936.97;5098418;28;20044;-59
2021/05/23 01:49:12;;;;;;;13.52;5.80;;;;;;;13.45;58.42;99935.19;5080414;28;20147;-59
2021/05/23 01:51:38;;;;;;;11.32;6.05;;;;;;;13.36;58.92;99940.78;5046985;28;20070;-62
2021/05/23 01:54:04;;;;;;;9.93;5.68;;;;;;;13.39;58.74;99938.03;5070042;28;20040;-61
2021/05/23 01:56:32;;;;;;;15.48;6.55;;;;;;;13.49;58.39;99938.66;5064521;28;20478;-61
2021/05/23 01:58:58;;;;;;;15.02;6.43;;;;;;;13.45;58.82;99923.63;5066825;28;20071;-64
2021/05/23 02:01:25;;;;;;;17.75;6.03;;;;;;;13.39;59.03;99930.03;5063373;28;20502;-57
2021/05/23 02:04:00;;;;;;;10.60;5.85;;;;;;;13.42;58.79;99937.94;5078337;28;20468;-61
2021/05/23 02:06:26;;;;;;;22.25;6.72;;;;;;;13.37;58.67;99921.22;5085719;28;20044;-62
2021/05/23 02:08:53;;;;;;;11.90;6.00;;;;;;;13.46;58.37;99930.75;5061350;28;20079;-63
2021/05/23 02:11:21;;;;;;;17.98;5.65;;;;;;;13.51;58.65;99929.69;5056532;28;20043;-63
2021/05/23 02:13:52;;;;;;;16.27;6.07;;;;;;;13.60;58.27;99932.06;5086324;28;20063;-62
2021/05/23 02:16:18;;;;;;;16.15;6.03;;;;;;;13.65;58.11;99934.63;5062987;28;20072;-61
2021/05/23 02:18:45;;;;;;;18.95;6.03;;;;;;;13.70;57.96;99938.84;5074437;28;20204;-62
2021/05/23 02:21:13;;;;;;;14.90;5.75;;;;;;;13.65;57.90;99932.81;5080960;28;20592;-58
2021/05/23 02:23:51;;;;;;;10.18;5.63;;;;;;;13.58;57.85;99917.06;5060824;28;20502;-72
2021/05/23 02:26:17;;;;;;;13.02;5.60;;;;;;;13.55;57.99;99922.47;5039005;28;20043;-60
2021/05/23 02:28:43;;;;;;;23.67;5.60;;;;;;;13.67;58.00;99932.75;5083588;28;20426;-58
2021/05/23 02:31:09;;;;;;;10.90;5.47;;;;;;;13.56;58.42;99940.19;5067877;28;20428;-68
2021/05/23 02:33:35;;;;;;;12.57;6.07;;;;;;;13.56;58.46;99917.09;5064093;28;20040;-61
2021/05/23 02:36:00;;;;;;;19.58;5.40;;;;;;;13.66;58.24;99920.38;5086645;28;20051;-60
2021/05/23 02:38:27;;;;;;;11.90;5.40;;;;;;;13.74;57.74;99919.19;5075524;28;20064;-60
2021/05/23 02:40:53;;;;;;;17.00;5.68;;;;;;;13.62;57.74;99908.91;5075856;28;20048;-60
2021/05/23 02:43:21;;;;;;;11.93;5.55;;;;;;;13.75;58.01;99930.75;5065450;28;20056;-62
2021/05/23 02:45:47;;;;;;;10.43;5.43;;;;;;;13.80;57.83;99924.34;5081729;28;20040;-58
2021/05/23 02:48:14;;;;;;;11.77;5.38;;;;;;;13.85;58.13;99925.09;5062447;28;20056;-64
2021/05/23 02:50:44;;;;;;;13.55;5.63;;;;;;;13.88;57.43;99920.59;5114394;27;20040;-61
2021/05/23 02:53:12;;;;;;;10.35;5.38;;;;;;;13.90;57.36;99920.47;5064118;28;20127;-60
2021/05/23 02:55:41;;;;;;;15.63;6.00;;;;;;;14.00;57.34;99912.22;5057679;28;20413;-60
2021/05/23 02:58:08;;;;;;;16.27;5.40;;;;;;;14.06;57.29;99909.34;5063343;28;20040;-61
2021/05/23 03:00:34;;;;;;;13.57;5.75;;;;;;;14.05;57.16;99908.47;5066992;28;20044;-59
2021/05/23 03:03:01;;;;;;;17.65;5.70;;;;;;;14.11;56.78;99900.28;5076464;28;20079;-61
2021/05/23 03:05:27;;;;;;;11.60;5.30;;;;;;;14.29;56.66;99907.72;5080622;28;20047;-59
2021/05/23 03:07:55;;;;;;;11.40;5.40;;;;;;;14.22;56.92;99905.28;5065494;28;20040;-59
2021/05/23 03:10:33;;;;;;;12.68;5.72;;;;;;;14.26;56.68;99914.94;5057869;28;20455;-61
2021/05/23 03:13:01;;;;;;;13.55;5.70;;;;;;;14.35;56.74;99912.00;5077440;28;20477;-60
2021/05/23 03:15:28;;;;;;;11.77;5.35;;;;;;;14.29;56.69;99894.38;5068215;28;20060;-59
2021/05/23 03:17:55;;;;;;;17.98;5.68;;;;;;;14.26;56.65;99918.47;5083736;28;20443;-60
2021/05/23 03:20:23;;;;;;;17.33;5.60;;;;;;;14.31;56.59;99897.00;5064372;28;20527;-66
2021/05/23 03:22:52;;;;;;;15.13;5.78;;;;;;;14.41;56.54;99910.00;5080252;28;20828;-60
2021/05/23 03:25:20;;;;;;;12.52;5.72;;;;;;;14.36;56.38;99917.25;5075752;28;20125;-62
2021/05/23 03:27:47;;;;;;;9.18;5.28;;;;;;;14.44;56.58;99922.34;5063647;28;20044;-68
2021/05/23 03:30:19;;;;;;;10.25;5.00;;;;;;;14.51;56.63;99922.09;5080898;28;20149;-62
2021/05/23 03:32:45;;;;;;;19.20;5.93;;;;;;;14.47;56.44;99909.75;5063193;28;20048;-64
2021/05/23 03:35:12;;;;;;;17.20;5.55;;;;;;;14.42;57.02;99910.84;5115606;27;20055;-64
2021/05/23 03:37:39;;;;;;;19.15;5.95;;;;;;;14.49;57.17;99909.72;5062293;28;20055;-65
2021/05/23 03:40:07;;;;;;;10.10;5.70;;;;;;;14.57;56.90;99907.66;5078882;28;20067;-62
2021/05/23 03:42:33;;;;;;;12.05;5.68;;;;;;;14.51;57.03;99910.56;5078256;28;20497;-67
2021/05/23 03:44:59;;;;;;;12.50;5.90;;;;;;;14.68;56.92;99905.50;5079631;28;20071;-62
2021/05/23 03:47:25;;;;;;;13.32;5.72;;;;;;;14.74;56.87;99903.50;5076664;28;20148;-62
2021/05/23 03:49:51;;;;;;;15.43;5.97;;;;;;;14.94;56.49;99908.13;5064303;28;20101;-60
2021/05/23 03:52:17;;;;;;;16.35;5.88;;;;;;;14.95;56.26;99915.25;5082926;28;20051;-63
2021/05/23 03:54:44;;;;;;;10.38;5.40;;;;;;;15.04;56.10;99910.44;5046428;28;20047;-62
2021/05/23 03:57:11;;;;;;;15.05;5.57;;;;;;;15.08;55.79;99911.19;5075798;28;20065;-64
2021/05/23 03:59:37;;;;;;;9.30;5.25;;;;;;;15.10;56.42;99912.88;5063711;28;20131;-62
2021/05/23 04:02:03;;;;;;;10.88;5.82;;;;;;;15.11;56.55;99906.59;5077584;28;20119;-66
2021/05/23 04:04:46;;;;;;;12.43;5.68;;;;;;;15.21;56.14;99908.03;5075022;28;20044;-61
2021/05/23 04:07:18;;;;;;;13.23;5.25;;;;;;;15.22;56.20;99903.53;5069879;28;20058;-62
2021/05/23 04:09:45;;;;;;;16.67;5.38;;;;;;;15.35;55.99;99904.88;5060982;28;20085;-61
2021/05/23 04:12:16;;;;;;;12.75;5.32;;;;;;;15.39;55.87;99904.69;5074142;28;20048;-59
2021/05/23 04:14:42;;;;;;;11.07;5.00;;;;;;;15.39;55.49;99902.03;5083803;28;20078;-65
2021/05/23 04:17:08;;;;;;;25.10;5.35;;;;;;;15.57;55.46;99913.81;5083760;28;20039;-59
2021/05/23 04:19:35;;;;;;;10.23;5.05;;;;;;;15.66;55.45;99913.50;5080173;28;20052;-66
2021/05/23 04:22:04;;;;;;;13.55;4.93;;;;;;;15.69;55.62;99905.34;5085091;28;20459;-62
2021/05/23 04:24:33;;;;;;;11.48;5.28;;;;;;;15.76;55.83;99899.72;5056468;28;20044;-67
2021/05/23 04:26:59;;;;;;;14.95;4.80;;;;;;;15.81;55.57;99900.41;5045747;28;20052;-60
2021/05/23 04:29:25;;;;;;;10.48;4.80;;;;;;;15.77;55.45;99901.44;5027612;28;20044;-61
2021/05/23 04:31:51;;;;;;;10.48;4.32;;;;;;;15.90;55.28;99897.34;5074071;28;20039;-63
2021/05/23 04:34:17;;;;;;;12.60;4.97;;;;;;;16.01;54.94;99892.47;5079474;28;20493;-60
2021/05/23 04:36:43;;;;;;;13.55;4.57;;;;;;;16.07;54.81;99902.94;5075805;28;20040;-62
2021/05/23 04:39:09;;;;;;;12.43;4.20;;;;;;;15.85;54.63;99885.09;5078420;28;20074;-60
2021/05/23 04:41:35;;;;;;;15.45;4.30;;;;;;;16.00;54.07;99889.84;5076338;28;20079;-67
2021/05/23 04:44:01;;;;;;;14.82;4.85;;;;;;;16.15;54.39;99906.16;5066561;28;20451;-62
2021/05/23 04:46:27;;;;;;;15.73;4.78;;;;;;;16.37;54.62;99908.81;5065783;28;20040;-62
2021/05/23 04:48:53;;;;;;;9.07;4.00;;;;;;;16.49;54.31;99908.34;5074626;28;20178;-59
2021/05/23 04:51:19;;;;;;;11.23;4.47;;;;;;;16.60;54.48;99901.63;5077360;28;20401;-57
2021/05/23 04:53:45;;;;;;;8.85;4.50;;;;;;;16.70;54.17;99894.94;5079055;28;20056;-58
2021/05/23 04:56:11;;;;;;;14.23;3.80;;;;;;;16.70;52.89;99896.75;5075573;28;20042;-62
2021/05/23 04:58:37;;;;;;;6.70;3.95;;;;;;;16.85;52.97;99898.78;5080354;28;20048;-70
2021/05/23 05:01:03;;;;;;;18.80;3.63;;;;;;;16.87;52.28;99897.78;5062255;28;20071;-59
2021/05/23 05:03:42;;;;;;;15.07;3.72;;;;;;;16.97;52.66;99898.25;5063529;28;20086;-56
2021/05/23 05:06:09;;;;;;;12.82;3.85;;;;;;;17.05;51.92;99901.47;5035072;28;20043;-67
2021/05/23 05:08:34;;;;;;;9.45;3.20;;;;;;;17.04;51.78;99900.56;5066839;28;20055;-62
2021/05/23 05:11:00;;;;;;;10.43;3.85;;;;;;;17.16;51.05;99901.84;5067316;28;20419;-64
2021/05/23 05:13:26;;;;;;;13.18;3.15;;;;;;;17.17;51.06;99903.59;5087740;28;20040;-62
2021/05/23 05:15:53;;;;;;;9.77;3.60;;;;;;;17.25;49.55;99891.56;5067979;28;20072;-62
2021/05/23 05:18:19;;;;;;;8.93;2.83;;;;;;;17.32;48.97;99890.38;5066495;28;20086;-58
2021/05/23 05:20:45;;;;;;;9.52;2.90;;;;;;;17.42;49.01;99885.50;5081119;28;20051;-62
2021/05/23 05:23:11;;;;;;;4.78;2.30;;;;;;;17.55;48.58;99892.91;5077718;28;20040;-70
2021/05/23 05:25:38;;;;;;;7.53;2.58;;;;;;;17.71;48.65;99898.41;5102195;28;20048;-61
2021/05/23 05:28:04;;;;;;;12.02;2.83;;;;;;;17.83;47.79;99890.66;5083168;28;20043;-63
2021/05/23 05:30:30;;;;;;;8.50;2.72;;;;;;;17.94;47.59;99891.03;5070341;28;20036;-59
2021/05/23 05:32:56;;;;;;;7.80;2.42;;;;;;;18.07;46.52;99896.66;5065611;28;20059;-66
2021/05/23 05:35:22;;;;;;;8.65;2.50;;;;;;;18.11;46.19;99895.56;5086748;28;20488;-59
2021/05/23 05:37:48;;;;;;;6.43;1.80;;;;;;;18.22;45.51;99892.38;5072675;28;20113;-62
2021/05/23 05:40:14;;;;;;;4.80;1.50;;;;;;;18.21;43.24;99896.88;5085602;28;20093;-60
2021/05/23 05:42:41;;;;;;;9.05;1.80;;;;;;;18.35;43.30;99897.09;5062775;28;20781;-64
2021/05/23 05:45:07;;;;;;;3.97;1.40;;;;;;;18.35;42.98;99888.19;5074943;28;20559;-62
2021/05/23 05:47:34;;;;;;;8.98;1.30;;;;;;;18.44;42.68;99891.28;5082796;28;20422;-64
2021/05/23 05:50:00;;;;;;;11.10;1.63;;;;;;;18.57;42.56;99876.28;5082565;28;20055;-67
2021/05/23 05:52:26;;;;;;;14.20;1.73;;;;;;;18.66;42.82;99875.81;5086998;28;20804;-61
2021/05/23 05:54:52;;;;;;;14.02;1.75;;;;;;;18.70;42.29;99898.03;5076473;28;20178;-61
2021/05/23 05:57:18;;;;;;;7.63;1.48;;;;;;;18.71;41.25;99892.56;5079520;28;20075;-63
2021/05/23 05:59:45;;;;;;;4.43;1.40;;;;;;;18.69;41.42;99896.28;5082982;28;20563;-61
2021/05/23 06:02:11;;;;;;;8.75;1.25;;;;;;;18.70;41.86;99873.88;5056462;28;20052;-60
2021/05/23 06:04:38;;;;;;;9.57;1.33;;;;;;;18.80;41.95;99873.31;5085099;28;20047;-64
2021/05/23 06:07:04;;;;;;;5.65;1.75;;;;;;;18.91;41.10;99862.00;5081282;28;20075;-64
2021/05/23 06:09:29;;;;;;;4.55;1.20;;;;;;;18.96;40.78;99863.50;5076519;28;20127;-62
2021/05/23 06:11:55;;;;;;;4.70;1.25;;;;;;;18.94;40.06;99840.34;5084069;28;20051;-64
2021/05/23 06:14:21;;;;;;;12.90;1.98;;;;;;;19.09;40.50;99861.88;5085808;28;20040;-61
2021/05/23 06:16:47;;;;;;;4.00;1.00;;;;;;;19.10;40.70;99852.03;5081433;28;20043;-63
2021/05/23 06:19:13;;;;;;;6.28;1.40;;;;;;;19.24;41.18;99846.78;5085533;28;20047;-61
2021/05/23 06:21:39;;;;;;;6.55;1.58;;;;;;;19.42;40.57;99848.50;5084661;28;20046;-61
2021/05/23 06:24:05;;;;;;;5.13;1.40;;;;;;;19.50;39.56;99855.19;5086122;28;20040;-61
2021/05/23 06:26:33;;;;;;;4.28;0.90;;;;;;;19.38;39.14;99798.53;5065050;28;20043;-62
2021/05/23 06:28:59;;;;;;;2.15;1.10;;;;;;;19.46;39.06;99837.47;5084617;28;20040;-65
2021/05/23 06:31:25;;;;;;;4.78;1.05;;;;;;;19.59;38.74;99843.94;5083882;28;20260;-65
2021/05/23 06:33:51;;;;;;;1.98;1.20;;;;;;;19.71;38.75;99837.88;5083067;28;20781;-65
2021/05/23 06:36:17;;;;;;;4.43;1.42;;;;;;;19.87;39.34;99851.31;5083211;28;20048;-63
2021/05/23 06:38:43;;;;;;;11.25;1.20;;;;;;;19.76;39.13;99842.97;5083774;28;20052;-65
2021/05/23 06:41:09;;;;;;;4.10;1.27;;;;;;;19.77;39.24;99832.13;5067164;28;20497;-65
2021/05/23 06:43:35;;;;;;;6.05;1.23;;;;;;;19.85;39.57;99827.19;5080420;28;20076;-64
2021/05/23 06:46:01;;;;;;;6.80;1.25;;;;;;;20.02;37.91;99842.38;5085276;28;20055;-63
2021/05/23 06:48:27;;;;;;;6.95;1.48;;;;;;;19.93;37.56;99818.69;5080560;28;20051;-66
2021/05/23 06:50:53;;;;;;;2.33;1.30;;;;;;;19.92;37.74;99838.47;5065569;28;20051;-64
2021/05/23 06:53:19;;;;;;;4.72;1.40;;;;;;;20.12;37.35;99817.56;5065342;28;20060;-66
2021/05/23 06:55:45;;;;;;;6.00;1.50;;;;;;;20.32;36.63;99821.78;5070556;28;20051;-63
2021/05/23 06:58:10;;;;;;;7.13;1.35;;;;;;;20.34;36.54;99814.50;5081054;28;20040;-57
2021/05/23 07:00:36;;;;;;;9.48;1.60;;;;;;;20.35;37.12;99814.41;5083540;28;20036;-64
2021/05/23 07:03:02;;;;;;;9.32;1.60;;;;;;;20.65;35.72;99836.81;5065341;28;20613;-62
2021/05/23 07:05:28;;;;;;;3.17;1.17;;;;;;;20.72;33.87;99819.34;5066381;28;20052;-62
2021/05/23 07:07:54;;;;;;;6.57;1.30;;;;;;;21.02;33.41;99816.63;5083324;28;20043;-63
2021/05/23 07:10:20;;;;;;;6.10;1.33;;;;;;;21.41;33.14;99801.50;5080626;28;20045;-62
2021/05/23 07:12:46;;;;;;;15.77;1.52;;;;;;;21.57;31.63;99783.38;5081465;28;20179;-62
2021/05/23 07:15:12;;;;;;;6.82;1.30;;;;;;;22.02;30.70;99802.03;5080259;28;20630;-61
2021/05/23 07:17:38;;;;;;;11.50;1.70;;;;;;;21.90;30.53;99791.16;5083977;28;20142;-73
2021/05/23 07:20:05;;;;;;;15.32;1.55;;;;;;;22.02;30.60;99786.78;5093069;28;20139;-61
2021/05/23 07:22:32;;;;;;;8.48;1.10;;;;;;;22.18;29.65;99795.63;5064101;28;20506;-63
2021/05/23 07:24:58;;;;;;;13.32;2.95;;;;;;;22.54;29.00;99799.41;5063243;28;20158;-61
2021/05/23 07:27:24;;;;;;;2.28;1.40;;;;;;;22.48;28.95;99809.78;5063265;28;20041;-64
2021/05/23 07:29:50;;;;;;;6.40;1.35;;;;;;;22.71;29.03;99812.66;5071189;28;20047;-68
2021/05/23 07:32:16;;;;;;;4.93;1.33;;;;;;;22.60;29.53;99815.22;5084276;28;20113;-60
2021/05/23 07:34:42;;;;;;;1.58;0.95;;;;;;;22.04;30.28;99799.22;5076827;28;20462;-66
2021/05/23 07:37:08;;;;;;;7.10;1.50;;;;;;;22.90;29.89;99807.69;5071379;28;20129;-61
2021/05/23 07:39:35;;;;;;;7.85;1.50;;;;;;;23.23;29.03;99796.38;5081809;28;20040;-65
2021/05/23 07:42:01;;;;;;;11.02;1.67;;;;;;;23.93;28.13;99787.63;5081801;28;20047;-61
2021/05/23 07:44:27;;;;;;;5.65;1.75;;;;;;;24.00;28.47;99787.06;5079303;28;20060;-64
2021/05/23 07:46:53;;;;;;;2.25;1.40;;;;;;;23.54;28.50;99804.91;5082603;28;20047;-57
2021/05/23 07:49:19;;;;;;;5.70;1.60;;;;;;;22.85;29.48;99807.16;5081743;28;20500;-58
2021/05/23 07:51:48;;;;;;;12.00;1.48;;;;;;;23.49;28.51;99795.41;5078474;28;20093;-67
2021/05/23 07:54:15;;;;;;;9.65;1.40;;;;;;;23.45;28.81;99802.88;5080158;28;20040;-71
2021/05/23 07:56:42;;;;;;;4.80;1.70;;;;;;;22.72;29.33;99784.66;5083361;28;20048;-61
2021/05/23 07:59:07;;;;;;;3.05;1.63;;;;;;;23.46;29.16;99793.75;5082023;28;20036;-61
2021/05/23 08:01:34;;;;;;;4.97;1.83;;;;;;;24.61;27.23;99783.31;5082207;28;20428;-61
2021/05/23 08:04:00;;;;;;;9.80;1.73;;;;;;;25.63;25.73;99783.25;5063324;28;20040;-61
2021/05/23 08:06:26;;;;;;;11.65;1.52;;;;;;;26.62;24.21;99776.75;5076828;28;20044;-61
2021/05/23 08:08:53;;;;;;;8.25;1.38;;;;;;;27.21;23.67;99795.09;5064610;28;20138;-63
2021/05/23 08:11:19;;;;;;;13.73;1.63;;;;;;;28.34;21.84;99782.91;5077789;28;20067;-58
2021/05/23 08:13:45;;;;;;;3.60;1.35;;;;;;;28.67;21.21;99778.91;5076058;28;20048;-56
2021/05/23 08:16:11;;;;;;;2.50;1.48;;;;;;;29.65;20.56;99792.13;5081905;28;20051;-61
2021/05/23 08:18:38;;;;;;;6.00;1.67;;;;;;;30.70;19.23;99775.09;5076645;28;20044;-67
2021/05/23 08:21:06;;;;;;;10.80;1.70;;;;;;;31.51;18.86;99797.50;5064222;28;20540;-60
2021/05/23 08:23:33;;;;;;;3.35;1.30;;;;;;;28.78;21.61;99793.28;5062261;28;20051;-63
2021/05/23 08:26:00;;;;;;;6.75;1.30;;;;;;;26.51;24.01;99758.59;5073481;28;20043;-66
2021/05/23 08:28:29;;;;;;;6.82;1.50;;;;;;;29.23;21.19;99775.28;5062706;28;20173;-59
2021/05/23 08:30:56;;;;;;;5.70;1.52;;;;;;;29.03;21.47;99778.22;5059690;28;20052;-62
2021/05/23 08:33:22;;;;;;;8.00;1.27;;;;;;;30.82;19.91;99782.06;5080299;28;20044;-61
2021/05/23 08:35:48;;;;;;;8.75;1.40;;;;;;;29.42;21.11;99766.16;5078625;28;20065;-64
2021/05/23 08:38:14;;;;;;;6.07;1.25;;;;;;;30.37;20.56;99770.31;5079179;28;20595;-58
2021/05/23 08:40:40;;;;;;;7.63;1.58;;;;;;;28.14;22.62;99753.88;5078152;28;20040;-63
2021/05/23 08:43:10;;;;;;;6.57;1.20;;;;;;;28.64;22.07;99747.31;5077332;28;20048;-57
2021/05/23 08:45:37;;;;;;;6.13;1.88;;;;;;;29.42;21.08;99771.63;5086282;28;20502;-67
2021/05/23 08:48:05;;;;;;;15.38;1.95;;;;;;;30.36;19.22;99763.09;5048162;28;20485;-59
2021/05/23 08:50:32;;;;;;;14.18;1.95;;;;;;;32.26;17.87;99767.34;5079351;28;20122;-58
2021/05/23 08:53:01;;;;;;;5.45;2.70;;;;;;;31.14;18.40;99757.66;5084169;28;20055;-59
2021/05/23 08:55:28;;;;;;;4.88;1.30;;;;;;;29.86;19.70;99761.81;5062696;28;20493;-58
2021/05/23 08:57:57;;;;;;;8.18;1.40;;;;;;;28.67;21.01;99748.88;5080647;28;20088;-60
2021/05/23 09:00:23;;;;;;;9.05;1.10;;;;;;;29.63;20.50;99755.03;5075819;28;20044;-64
2021/05/23 09:02:55;;;;;;;3.53;1.50;;;;;;;30.08;19.01;99751.31;5078792;28;20071;-62
2021/05/23 09:05:37;;;;;;;8.98;1.20;;;;;;;28.54;21.02;99753.78;5078770;28;20051;-63
2021/05/23 09:08:14;;;;;;;7.22;1.23;;;;;;;28.71;20.81;99742.13;5081182;28;20670;-63
2021/05/23 09:10:41;;;;;;;6.40;1.92;;;;;;;29.26;20.32;99739.47;5063012;28;20501;-62
2021/05/23 09:13:07;;;;;;;6.80;1.52;;;;;;;26.92;22.48;99765.91;5078214;28;20112;-63
2021/05/23 09:15:34;;;;;;;6.75;1.10;;;;;;;25.82;23.83;99708.25;5075266;28;20733;-63
2021/05/23 09:18:12;;;;;;;3.17;0.93;;;;;;;27.31;22.15;99751.56;5065196;28;20078;-67
2021/05/23 09:20:42;;;;;;;4.78;1.30;;;;;;;27.83;21.33;99726.84;5074659;28;20048;-64
2021/05/23 09:23:17;;;;;;;4.20;0.90;;;;;;;27.60;20.68;99722.59;5077522;28;20059;-59
2021/05/23 09:25:43;;;;;;;3.08;1.00;;;;;;;27.57;21.18;99737.34;5061811;28;20447;-61
2021/05/23 09:28:10;;;;;;;11.00;1.60;;;;;;;31.03;18.14;99723.16;5100254;28;20064;-61
2021/05/23 09:30:39;;;;;;;18.10;1.50;;;;;;;31.30;17.69;99725.78;5063763;28;20067;-63
2021/05/23 09:33:06;;;;;;;5.80;1.40;;;;;;;28.25;20.63;99695.59;5065164;28;20048;-60
2021/05/23 09:35:41;;;;;;;7.55;1.25;;;;;;;31.09;18.14;99724.41;5062495;28;20056;-66
2021/05/23 09:38:08;;;;;;;6.22;1.65;;;;;;;31.93;17.39;99718.91;5062225;28;20525;-58
2021/05/23 09:40:40;;;;;;;10.48;1.30;;;;;;;32.31;16.95;99718.31;5089982;28;20285;-63
2021/05/23 09:43:08;;;;;;;4.38;1.00;;;;;;;29.44;19.55;99715.78;5055033;28;20078;-69
2021/05/23 09:45:43;;;;;;;4.15;1.40;;;;;;;29.43;20.20;99707.78;5082558;28;20219;-63
2021/05/23 09:48:30;;;;;;;4.57;1.40;;;;;;;30.44;18.91;99703.81;5078220;28;20101;-60
2021/05/23 09:50:58;;;;;;;14.18;1.10;;;;;;;30.97;18.47;99699.13;5077491;28;20458;-59
2021/05/23 09:53:31;;;;;;;4.97;1.10;;;;;;;29.54;19.54;99694.75;5081120;28;20040;-60
2021/05/23 09:56:01;;;;;;;4.20;1.17;;;;;;;30.62;19.03;99681.91;5075962;28;20082;-67
2021/05/23 09:58:34;;;;;;;6.82;1.00;;;;;;;28.38;20.81;99688.00;5108512;27;20087;-58
2021/05/23 10:01:01;;;;;;;9.60;1.10;;;;;;;27.66;21.66;99684.75;5066238;28;20521;-61
2021/05/23 10:03:34;;;;;;;6.18;1.05;;;;;;;29.35;19.91;99686.66;5077121;28;20485;-61
2021/05/23 10:06:00;;;;;;;7.68;1.38;;;;;;;30.16;19.59;99684.91;5073734;28;20102;-64
2021/05/23 10:08:28;;;;;;;8.10;1.13;;;;;;;30.29;19.57;99688.97;5100077;28;20051;-64
2021/05/23 10:10:55;;;;;;;2.97;0.60;;;;;;;26.86;22.67;99691.09;5114804;27;20052;-68
2021/05/23 10:13:25;;;;;;;7.18;1.00;;;;;;;25.15;25.30;99679.44;5066129;28;20032;-59
2021/05/23 10:15:51;;;;;;;6.30;1.20;;;;;;;25.18;25.68;99673.78;5085409;28;20040;-59
2021/05/23 10:18:21;;;;;;;5.40;0.95;;;;;;;24.98;25.45;99669.09;5084039;28;20046;-72
2021/05/23 10:20:52;;;;;;;10.07;1.70;;;;;;;27.12;22.76;99672.47;5068489;28;20840;-61
2021/05/23 10:23:24;;;;;;;5.90;1.20;;;;;;;29.02;20.54;99665.38;5081266;28;20573;-62
2021/05/23 10:25:53;;;;;;;4.55;1.10;;;;;;;29.67;19.33;99664.38;5067541;28;20132;-68
2021/05/23 10:28:22;;;;;;;8.18;1.20;;;;;;;28.55;20.68;99679.09;5057100;28;20154;-70
2021/05/23 10:30:56;;;;;;;16.95;1.52;;;;;;;28.26;20.49;99642.78;5086218;28;20039;-58
2021/05/23 10:33:23;;;;;;;3.25;1.15;;;;;;;29.35;19.31;99644.81;5066904;28;20068;-66
2021/05/23 10:35:52;;;;;;;5.72;1.10;;;;;;;28.47;20.55;99643.50;5064340;28;20098;-61
2021/05/23 10:38:21;;;;;;;5.00;0.73;;;;;;;26.75;20.94;99668.56;5065926;28;20572;-59
2021/05/23 10:41:04;;;;;;;6.50;1.52;;;;;;;29.27;18.54;99659.22;5084376;28;20040;-68
2021/05/23 10:43:32;;;;;;;4.07;1.30;;;;;;;27.57;20.24;99662.94;5084290;28;20056;-62
2021/05/23 10:46:09;;;;;;;11.38;0.88;;;;;;;26.35;21.05;99662.13;5087254;28;20040;-61
2021/05/23 10:49:01;;;;;;;8.32;1.00;;;;;;;24.87;23.37;99636.53;5054220;28;20044;-62
2021/05/23 10:51:29;;;;;;;3.00;1.10;;;;;;;29.09;18.85;99630.13;5086568;28;20472;-63
2021/05/23 10:53:55;;;;;;;4.63;1.65;;;;;;;28.02;19.73;99624.13;5083962;28;20036;-60
2021/05/23 10:56:29;;;;;;;5.32;1.38;;;;;;;27.15;20.43;99626.78;5085614;28;20050;-67
2021/05/23 10:58:59;;;;;;;5.00;1.20;;;;;;;26.79;20.41;99611.03;5066749;28;20040;-67
2021/05/23 11:01:46;;;;;;;14.00;1.25;;;;;;;26.60;21.22;99619.09;5082105;28;20054;-61
2021/05/23 11:04:15;;;;;;;11.38;1.30;;;;;;;26.81;20.80;99619.06;5086426;28;20040;-61
2021/05/23 11:06:44;;;;;;;14.38;1.30;;;;;;;26.73;21.06;99618.88;5084256;28;20592;-62
2021/05/23 11:09:16;;;;;;;6.15;1.00;;;;;;;26.86;20.66;99619.50;5080640;28;20121;-65
2021/05/23 11:11:43;;;;;;;6.70;1.02;;;;;;;27.86;19.68;99610.22;5082004;28;20048;-61
2021/05/23 11:14:18;;;;;;;6.65;1.10;;;;;;;27.39;20.83;99600.09;5062052;28;20053;-62
2021/05/23 11:16:48;;;;;;;4.97;1.20;;;;;;;25.99;22.56;99611.78;5082905;28;20450;-59
2021/05/23 11:19:15;;;;;;;7.18;0.90;;;;;;;26.34;22.17;99603.28;5085165;28;20468;-71
2021/05/23 11:21:45;;;;;;;3.70;0.90;;;;;;;25.58;22.45;99606.19;5063692;28;20045;-60
2021/05/23 11:24:11;;;;;;;8.90;1.13;;;;;;;25.44;23.23;99601.91;5080231;28;20398;-58
2021/05/23 11:26:39;;;;;;;6.78;1.20;;;;;;;25.62;23.00;99594.09;5066172;28;20491;-62
2021/05/23 11:29:06;;;;;;;8.27;1.02;;;;;;;24.98;23.61;99592.25;5078635;28;20047;-58
2021/05/23 11:31:35;;;;;;;8.63;1.08;;;;;;;24.50;24.18;99612.44;5081322;28;20446;-59
2021/05/23 11:34:06;;;;;;;5.18;0.98;;;;;;;23.97;23.55;99548.88;5065225;28;20040;-61